Time;durP1;ratioP1;P1;durP2;ratioP2;P2;SDS_P1;SDS_P2;PMS_P1;PMS_P2;Temp;Humidity;BMP_temperature;BMP_pressure;BME280_temperature;BME280_humidity;BME280_pressure;Samples;Min_cycle;Max_cycle;Signal;HPM_P1;HPM_P2
2022/05/13 00:01:35;;;;;;;3.88;1.48;;;;;;;12.88;56.35;100898.94;5074673;28;20076;-64
2022/05/13 00:04:05;;;;;;;4.07;1.17;;;;;;;12.86;56.33;100903.31;5075272;28;20071;-64
2022/05/13 00:06:35;;;;;;;4.15;1.33;;;;;;;12.84;56.47;100897.28;5086345;28;20113;-64
2022/05/13 00:09:12;;;;;;;5.35;1.55;;;;;;;12.82;56.53;100899.03;5095540;28;20097;-64
2022/05/13 00:14:23;;;;;;;4.50;1.35;;;;;;;12.80;56.87;100906.00;5094729;28;20337;-64
2022/05/13 00:17:06;;;;;;;6.30;1.52;;;;;;;12.79;57.10;100897.34;5095303;28;20080;-64
2022/05/13 00:19:33;;;;;;;4.57;1.40;;;;;;;12.76;57.03;100901.75;5094771;28;20449;-64
2022/05/13 00:22:02;;;;;;;3.50;1.45;;;;;;;12.76;57.14;100904.34;5095189;28;20383;-64
2022/05/13 00:24:29;;;;;;;4.00;1.40;;;;;;;12.76;57.23;100893.94;5094642;28;20484;-63
2022/05/13 00:26:56;;;;;;;7.03;1.67;;;;;;;12.74;57.33;100895.69;5094346;28;20445;-63
2022/05/13 00:29:27;;;;;;;6.22;1.50;;;;;;;12.72;57.65;100902.66;5094425;28;20372;-63
2022/05/13 00:32:02;;;;;;;3.08;1.25;;;;;;;12.71;57.66;100895.75;5095095;28;20113;-63
2022/05/13 00:34:32;;;;;;;3.90;1.35;;;;;;;12.71;57.92;100900.94;5103518;28;20047;-63
2022/05/13 00:37:03;;;;;;;2.45;1.20;;;;;;;12.72;57.45;100902.66;5115329;28;20048;-63
2022/05/13 00:39:38;;;;;;;4.85;1.63;;;;;;;12.74;57.69;100900.91;5102775;28;20052;-63
2022/05/13 00:42:17;;;;;;;;;;;;;;;12.63;58.12;100899.31;5101468;28;20051;-63
2022/05/13 00:44:45;;;;;;;2.78;1.20;;;;;;;12.66;57.76;100892.34;5094833;28;19924;-63
2022/05/13 00:47:14;;;;;;;5.10;1.45;;;;;;;12.66;57.62;100897.56;5094086;28;20051;-62
2022/05/13 00:49:51;;;;;;;3.60;1.00;;;;;;;12.66;57.67;100887.16;5087250;28;20059;-63
2022/05/13 00:52:21;;;;;;;8.05;1.25;;;;;;;12.63;57.72;100886.31;5094421;28;20058;-63
2022/05/13 00:54:59;;;;;;;2.80;1.05;;;;;;;12.68;57.57;100888.84;5094633;28;20052;-63
2022/05/13 00:57:36;;;;;;;4.07;1.30;;;;;;;12.71;57.43;100885.34;5094299;28;20532;-62
2022/05/13 01:00:08;;;;;;;2.58;1.00;;;;;;;12.76;57.14;100886.13;5094687;28;20086;-63
2022/05/13 01:02:44;;;;;;;5.22;1.20;;;;;;;12.76;57.03;100880.94;5090138;28;20138;-63
2022/05/13 01:05:14;;;;;;;3.83;1.10;;;;;;;12.80;57.23;100885.19;5093885;28;20452;-63
2022/05/13 01:07:44;;;;;;;2.45;1.05;;;;;;;12.84;56.96;100886.88;5093670;28;20040;-63
2022/05/13 01:10:18;;;;;;;3.70;1.20;;;;;;;12.87;56.90;100882.47;5094439;28;20141;-63
2022/05/13 01:12:55;;;;;;;2.85;0.98;;;;;;;12.93;56.75;100878.91;5094172;28;20047;-63
2022/05/13 01:15:29;;;;;;;4.15;1.30;;;;;;;12.97;56.48;100878.00;5093293;28;20060;-63
2022/05/13 01:18:08;;;;;;;3.33;1.30;;;;;;;13.01;56.39;100874.47;5094205;28;20079;-63
2022/05/13 01:20:46;;;;;;;4.00;0.95;;;;;;;13.04;56.34;100879.63;5093984;28;20048;-63
2022/05/13 01:23:31;;;;;;;4.18;1.20;;;;;;;13.11;56.07;100877.78;5093665;28;20384;-63
2022/05/13 01:26:03;;;;;;;4.07;1.10;;;;;;;13.13;56.03;100884.69;5093575;28;20059;-63
2022/05/13 01:28:36;;;;;;;4.90;1.67;;;;;;;13.16;55.91;100874.22;5092109;28;20058;-64
2022/05/13 01:31:11;;;;;;;3.63;1.15;;;;;;;13.19;55.95;100884.63;5092685;28;20059;-64
2022/05/13 01:33:47;;;;;;;4.57;1.23;;;;;;;13.21;55.82;100885.44;5095295;28;20456;-64
2022/05/13 01:36:17;;;;;;;3.45;0.90;;;;;;;13.24;55.71;100885.41;5113817;28;20075;-64
2022/05/13 01:38:59;;;;;;;3.35;1.20;;;;;;;13.27;55.57;100885.34;5107888;28;20052;-64
2022/05/13 01:41:29;;;;;;;3.30;1.05;;;;;;;13.27;55.56;100887.94;5099932;28;20051;-64
2022/05/13 01:44:00;;;;;;;2.53;1.10;;;;;;;13.29;55.53;100881.84;5093467;28;20051;-64
2022/05/13 01:46:36;;;;;;;2.10;1.02;;;;;;;13.29;55.50;100880.13;5089825;28;20121;-64
2022/05/13 01:49:04;;;;;;;2.67;0.95;;;;;;;13.31;55.28;100880.09;5086300;28;20064;-64
2022/05/13 01:51:34;;;;;;;4.20;1.00;;;;;;;13.31;55.52;100880.09;5092989;28;20509;-64
2022/05/13 01:54:20;;;;;;;4.75;1.05;;;;;;;13.29;55.41;100874.91;5093729;28;20058;-64
2022/05/13 01:56:49;;;;;;;1.70;0.80;;;;;;;13.25;55.74;100878.44;5093617;28;20044;-64
2022/05/13 01:59:18;;;;;;;4.20;1.00;;;;;;;13.26;55.67;100875.81;5093350;28;20048;-64
2022/05/13 02:01:46;;;;;;;2.42;0.82;;;;;;;13.29;55.64;100879.25;5091724;28;20087;-64
2022/05/13 02:04:13;;;;;;;2.70;1.13;;;;;;;13.30;55.56;100871.41;5092339;28;20047;-64
2022/05/13 02:06:43;;;;;;;3.67;1.17;;;;;;;13.32;55.46;100871.38;5092999;28;20040;-64
2022/05/13 02:09:15;;;;;;;3.15;1.17;;;;;;;13.33;55.40;100870.50;5093316;28;20113;-64
2022/05/13 02:11:45;;;;;;;4.13;1.17;;;;;;;13.32;55.35;100864.44;5093320;28;20095;-64
2022/05/13 02:14:13;;;;;;;2.85;1.17;;;;;;;13.33;55.45;100863.56;5093091;28;20461;-64
2022/05/13 02:16:43;;;;;;;3.28;1.52;;;;;;;13.35;55.46;100868.72;5093127;28;20044;-64
2022/05/13 02:19:17;;;;;;;3.15;1.17;;;;;;;13.37;55.26;100861.75;5091876;28;20409;-64
2022/05/13 02:21:46;;;;;;;3.63;1.10;;;;;;;13.37;55.26;100862.59;5093057;28;20087;-64
2022/05/13 02:24:16;;;;;;;3.38;1.02;;;;;;;13.35;55.38;100859.19;5092849;28;20059;-64
2022/05/13 02:26:43;;;;;;;2.55;1.10;;;;;;;13.37;55.28;100857.41;5093111;28;20055;-64
2022/05/13 02:29:13;;;;;;;4.18;0.98;;;;;;;13.39;55.28;100860.84;5088701;28;20052;-64
2022/05/13 02:31:47;;;;;;;5.55;1.13;;;;;;;13.41;55.21;100863.41;5092494;28;20404;-64
2022/05/13 02:34:18;;;;;;;5.97;1.10;;;;;;;13.42;55.04;100859.91;5099051;28;20460;-64
2022/05/13 02:36:48;;;;;;;5.07;1.38;;;;;;;13.44;54.93;100863.34;5097898;28;20047;-64
2022/05/13 02:39:32;;;;;;;4.63;1.13;;;;;;;13.46;54.68;100861.59;5092710;28;20132;-64
2022/05/13 02:42:02;;;;;;;3.53;1.20;;;;;;;13.45;54.95;100862.47;5092947;28;20113;-64
2022/05/13 02:44:33;;;;;;;3.72;1.10;;;;;;;13.46;54.84;100861.59;5093201;28;20044;-64
2022/05/13 02:47:10;;;;;;;2.38;0.85;;;;;;;13.45;54.86;100865.06;5092982;28;20076;-64
2022/05/13 02:49:39;;;;;;;6.03;1.45;;;;;;;13.46;54.82;100866.78;5072397;28;20071;-64
2022/05/13 02:52:09;;;;;;;2.97;0.80;;;;;;;13.48;54.76;100859.81;5072380;28;20350;-64
2022/05/13 02:54:42;;;;;;;2.38;0.98;;;;;;;13.50;54.27;100863.25;5072916;28;20131;-64
2022/05/13 02:57:11;;;;;;;4.30;1.00;;;;;;;13.50;54.42;100860.63;5072924;28;20052;-60
2022/05/13 02:59:42;;;;;;;1.70;0.80;;;;;;;13.51;54.22;100859.75;5072979;28;20131;-60
2022/05/13 03:02:12;;;;;;;2.97;0.88;;;;;;;13.51;54.25;100854.53;5092927;28;20067;-60
2022/05/13 03:04:40;;;;;;;2.40;0.90;;;;;;;13.50;54.08;100858.03;5093079;28;20056;-60
2022/05/13 03:07:09;;;;;;;2.53;0.90;;;;;;;13.52;54.14;100856.25;5092594;28;20354;-60
2022/05/13 03:09:35;;;;;;;2.88;0.85;;;;;;;13.53;54.01;100858.00;5092916;28;20117;-60
2022/05/13 03:12:15;;;;;;;5.57;1.02;;;;;;;13.59;53.77;100863.09;5092691;28;20083;-60
2022/05/13 03:14:42;;;;;;;2.08;0.70;;;;;;;13.61;53.58;100861.31;5092851;28;20048;-60
2022/05/13 03:17:11;;;;;;;4.30;0.70;;;;;;;13.65;53.55;100859.53;5076168;28;20049;-60
2022/05/13 03:19:41;;;;;;;4.20;0.93;;;;;;;13.67;53.22;100858.59;5084053;28;20142;-60
2022/05/13 03:22:09;;;;;;;2.55;0.80;;;;;;;13.72;53.49;100853.31;5092590;28;20052;-60
2022/05/13 03:24:39;;;;;;;4.03;0.90;;;;;;;13.75;53.18;100854.09;5092300;28;20444;-60
2022/05/13 03:27:22;;;;;;;2.75;0.73;;;;;;;13.80;52.81;100848.78;5092555;28;20063;-60
2022/05/13 03:29:52;;;;;;;3.80;0.80;;;;;;;13.80;52.94;100847.06;5087414;28;20127;-60
2022/05/13 03:32:29;;;;;;;2.63;0.85;;;;;;;13.84;52.79;100846.09;5075445;28;20070;-60
2022/05/13 03:34:59;;;;;;;4.07;1.00;;;;;;;13.86;53.03;100846.94;5100901;28;20055;-60
2022/05/13 03:37:28;;;;;;;2.42;0.70;;;;;;;13.87;52.89;100840.81;5116842;28;20051;-60
2022/05/13 03:39:57;;;;;;;5.93;1.70;;;;;;;13.90;52.77;100845.97;5100043;28;20056;-59
2022/05/13 03:42:33;;;;;;;3.05;0.77;;;;;;;13.96;52.81;100837.16;5102223;28;20066;-59
2022/05/13 03:45:02;;;;;;;;;;;;;;;13.95;52.81;100847.63;5096366;28;20055;-59
2022/05/13 03:47:32;;;;;;;4.30;1.10;;;;;;;14.04;52.67;100844.81;5095860;28;19924;-59
2022/05/13 03:50:03;;;;;;;1.52;0.77;;;;;;;14.10;52.36;100839.50;5096112;28;20062;-60
2022/05/13 03:52:34;;;;;;;3.60;1.00;;;;;;;14.19;52.44;100844.53;5096054;28;20140;-60
2022/05/13 03:55:02;;;;;;;3.08;0.90;;;;;;;14.29;52.42;100847.78;5095603;28;20444;-60
2022/05/13 03:57:43;;;;;;;5.05;0.95;;;;;;;14.42;52.17;100846.63;5095284;28;20861;-58
2022/05/13 04:00:21;;;;;;;2.53;0.85;;;;;;;14.53;52.03;100845.53;5095541;28;20461;-59
2022/05/13 04:02:51;;;;;;;3.15;0.85;;;;;;;14.65;51.35;100843.56;5095571;28;20062;-59
2022/05/13 04:10:54;;;;;;;5.47;1.10;;;;;;;15.02;51.10;100853.94;5095259;28;20075;-60
2022/05/13 04:16:13;;;;;;;3.60;1.15;;;;;;;15.27;50.41;100848.97;5095297;28;20055;-59
2022/05/13 04:18:45;;;;;;;3.53;0.90;;;;;;;15.42;50.20;100852.06;5095273;28;20040;-60
2022/05/13 04:21:18;;;;;;;5.28;1.00;;;;;;;15.55;50.22;100844.72;5095192;28;20051;-58
2022/05/13 04:23:49;;;;;;;5.40;1.27;;;;;;;15.70;49.90;100844.38;5095225;28;20094;-59
2022/05/13 04:26:26;;;;;;;4.05;1.10;;;;;;;15.85;49.38;100845.69;5095031;28;20048;-59
2022/05/13 04:29:13;;;;;;;4.13;1.15;;;;;;;16.02;49.26;100846.06;5095337;28;20048;-60
2022/05/13 04:31:44;;;;;;;5.00;1.27;;;;;;;16.13;48.80;100845.78;5095096;28;20048;-58
2022/05/13 04:34:14;;;;;;;4.43;1.15;;;;;;;16.25;48.85;100841.94;5101281;28;20167;-59
2022/05/13 04:36:44;;;;;;;3.03;1.52;;;;;;;16.37;48.72;100839.81;5115156;28;20374;-59
2022/05/13 04:39:14;;;;;;;4.45;0.93;;;;;;;16.49;48.45;100845.56;5105421;28;20052;-60
2022/05/13 04:44:41;;;;;;;6.40;1.33;;;;;;;16.79;47.68;100849.88;5094773;28;20185;-59
2022/05/13 04:48:15;;;;;;;8.57;1.10;;;;;;;16.88;47.35;100853.97;5094386;28;20686;-59
2022/05/13 04:49:58;;;;;;;2.70;1.00;;;;;;;17.00;47.49;100851.78;5073972;28;20059;-60
2022/05/13 04:52:28;;;;;;;7.85;1.27;;;;;;;17.12;46.67;100847.91;5074710;28;20552;-59
2022/05/13 04:54:57;;;;;;;3.95;1.15;;;;;;;17.23;46.39;100855.44;5074242;28;20138;-58
2022/05/13 04:57:27;;;;;;;9.00;1.25;;;;;;;17.37;46.16;100861.06;5074547;28;20076;-60
2022/05/13 04:59:58;;;;;;;11.00;2.38;;;;;;;17.50;45.96;100859.72;5074485;28;20056;-60
2022/05/13 05:02:29;;;;;;;7.40;1.38;;;;;;;17.62;45.49;100856.66;5074454;28;20052;-60
2022/05/13 05:04:58;;;;;;;8.60;1.80;;;;;;;17.77;45.48;100852.69;5074414;28;20489;-60
2022/05/13 05:07:26;;;;;;;3.13;0.80;;;;;;;17.94;45.16;100854.69;5074013;28;20445;-60
2022/05/13 05:09:57;;;;;;;3.38;0.95;;;;;;;18.09;44.58;100843.63;5074267;28;20135;-60
2022/05/13 05:12:25;;;;;;;4.93;1.10;;;;;;;18.21;44.30;100848.44;5073936;28;20114;-60
2022/05/13 05:14:52;;;;;;;1.70;0.75;;;;;;;18.29;44.05;100856.00;5073918;28;20563;-60
2022/05/13 05:17:29;;;;;;;17.73;1.45;;;;;;;18.36;43.72;100851.38;5074059;28;20048;-60
2022/05/13 05:19:56;;;;;;;7.30;1.08;;;;;;;18.44;43.80;100859.81;5074177;28;20066;-60
2022/05/13 05:22:26;;;;;;;3.65;0.98;;;;;;;18.48;43.57;100866.66;5073954;28;20059;-60
2022/05/13 05:24:54;;;;;;;9.52;1.80;;;;;;;18.50;43.69;100862.19;5073987;28;20139;-60
2022/05/13 05:27:22;;;;;;;17.45;1.75;;;;;;;18.48;43.83;100866.66;5072837;28;20052;-60
2022/05/13 05:29:51;;;;;;;15.60;1.80;;;;;;;18.40;43.81;100874.81;5073839;28;20056;-60
2022/05/13 05:32:27;;;;;;;12.23;1.60;;;;;;;18.30;43.71;100873.47;5073591;28;20056;-60
2022/05/13 05:34:56;;;;;;;4.43;1.67;;;;;;;18.14;44.19;100875.78;5085816;28;20052;-60
2022/05/13 05:37:26;;;;;;;6.18;1.30;;;;;;;18.08;44.41;100869.91;5094042;28;20083;-60
2022/05/13 05:39:52;;;;;;;7.63;1.45;;;;;;;18.02;44.62;100863.13;5078121;28;20078;-60
2022/05/13 05:42:22;;;;;;;4.70;1.08;;;;;;;17.92;44.71;100877.50;5079644;28;20063;-60
2022/05/13 05:44:50;;;;;;;7.53;1.20;;;;;;;17.83;45.01;100869.97;5073575;28;20052;-60
2022/05/13 05:47:26;;;;;;;6.78;1.15;;;;;;;17.77;44.97;100873.66;5073565;28;20055;-60
2022/05/13 05:49:55;;;;;;;;;;;;;;;17.65;45.21;100874.03;5094074;28;20056;-60
2022/05/13 05:52:31;;;;;;;4.50;1.35;;;;;;;17.72;45.56;100874.75;5093604;28;19924;-60
2022/05/13 05:57:57;;;;;;;15.57;1.73;;;;;;;17.90;44.96;100874.06;5093335;28;20090;-58
2022/05/13 06:00:24;;;;;;;8.13;1.58;;;;;;;18.05;44.75;100863.00;5084594;28;20052;-61
2022/05/13 06:02:55;;;;;;;10.38;1.80;;;;;;;18.18;44.88;100874.75;5080613;28;20078;-61
2022/05/13 06:05:24;;;;;;;9.55;1.40;;;;;;;18.23;44.40;100870.22;5093422;28;20048;-60
2022/05/13 06:07:55;;;;;;;2.80;0.90;;;;;;;18.29;44.00;100877.84;5092897;28;20083;-61
2022/05/13 06:10:26;;;;;;;4.85;1.23;;;;;;;18.33;43.78;100878.59;5091415;28;20346;-61
2022/05/13 06:12:53;;;;;;;6.97;1.42;;;;;;;18.42;43.60;100872.13;5086574;28;20056;-61
2022/05/13 06:15:22;;;;;;;9.90;1.60;;;;;;;18.45;43.51;100880.75;5093160;28;20094;-61
2022/05/13 06:17:55;;;;;;;7.60;1.20;;;;;;;18.52;43.49;100868.22;5096269;28;20051;-61
2022/05/13 06:20:34;;;;;;;11.13;1.77;;;;;;;18.64;42.86;100873.03;5103704;28;20136;-60
2022/05/13 06:23:02;;;;;;;11.63;2.15;;;;;;;18.72;42.96;100881.47;5098109;28;20055;-60
2022/05/13 06:25:30;;;;;;;4.53;1.00;;;;;;;18.86;42.39;100871.28;5094616;28;20052;-60
2022/05/13 06:28:01;;;;;;;3.53;0.90;;;;;;;19.05;41.91;100862.66;5097657;28;20054;-59
2022/05/13 06:30:33;;;;;;;4.68;1.00;;;;;;;19.23;41.76;100865.34;5103396;28;20399;-61
2022/05/13 06:33:02;;;;;;;3.17;1.00;;;;;;;19.41;41.45;100866.38;5105293;28;20210;-60
2022/05/13 06:35:38;;;;;;;5.47;1.58;;;;;;;19.60;40.85;100868.22;5111112;28;20044;-59
2022/05/13 06:38:08;;;;;;;2.05;0.70;;;;;;;19.73;40.72;100872.03;5097800;28;20039;-61
2022/05/13 06:40:38;;;;;;;13.65;1.88;;;;;;;19.80;40.58;100870.88;5100331;28;20132;-60
2022/05/13 06:43:08;;;;;;;12.88;1.90;;;;;;;19.87;39.95;100859.16;5104925;28;20134;-59
2022/05/13 06:45:38;;;;;;;15.98;1.70;;;;;;;19.97;39.95;100865.69;5096038;28;20064;-60
2022/05/13 06:48:08;;;;;;;4.78;0.88;;;;;;;20.10;39.63;100866.84;5105948;28;20052;-59
2022/05/13 06:50:37;;;;;;;12.30;1.45;;;;;;;20.27;39.48;100862.56;5103230;28;20206;-60
2022/05/13 06:53:08;;;;;;;17.88;1.83;;;;;;;20.43;39.17;100864.47;5098018;28;20052;-60
2022/05/13 06:55:36;;;;;;;15.00;1.67;;;;;;;20.65;38.81;100866.06;5109599;28;20051;-61
2022/05/13 06:58:06;;;;;;;6.95;1.40;;;;;;;20.79;38.20;100871.53;5098116;28;20436;-62
2022/05/13 07:00:33;;;;;;;10.43;1.48;;;;;;;20.85;37.72;100868.63;5102480;28;20133;-62
2022/05/13 07:03:04;;;;;;;7.05;1.20;;;;;;;20.87;37.74;100863.28;5105856;28;20051;-62
2022/05/13 07:05:34;;;;;;;8.30;1.13;;;;;;;20.83;37.56;100859.94;5096484;28;20071;-62
2022/05/13 07:08:08;;;;;;;9.60;1.52;;;;;;;20.78;37.12;100857.50;5111227;28;20440;-62
2022/05/13 07:10:37;;;;;;;15.80;1.50;;;;;;;20.82;37.25;100860.03;5101076;28;20467;-63
2022/05/13 07:13:08;;;;;;;5.97;1.08;;;;;;;20.80;37.22;100853.00;5101490;28;20113;-63
2022/05/13 07:15:36;;;;;;;3.58;0.90;;;;;;;20.80;37.18;100857.44;5107460;28;20044;-63
2022/05/13 07:18:05;;;;;;;24.85;2.38;;;;;;;20.82;37.11;100854.75;5110668;28;20048;-63
2022/05/13 07:20:33;;;;;;;22.42;2.40;;;;;;;20.90;37.11;100855.22;5096032;28;20064;-63
2022/05/13 07:23:06;;;;;;;8.55;1.35;;;;;;;21.04;36.82;100850.13;5089122;28;20048;-60
2022/05/13 07:25:35;;;;;;;7.63;1.48;;;;;;;21.19;36.80;100849.34;5110981;28;20083;-60
2022/05/13 07:28:06;;;;;;;9.60;2.70;;;;;;;21.33;36.54;100841.66;5101114;28;20055;-59
2022/05/13 07:30:37;;;;;;;3.75;0.80;;;;;;;21.45;36.20;100845.44;5105256;28;20048;-59
2022/05/13 07:33:04;;;;;;;9.40;1.95;;;;;;;21.58;35.79;100850.91;5096180;28;20044;-62
2022/05/13 07:35:42;;;;;;;5.10;1.15;;;;;;;21.65;35.04;100841.75;5098384;28;20131;-62
2022/05/13 07:38:24;;;;;;;6.07;0.88;;;;;;;21.64;34.71;100856.72;5109848;28;20052;-61
2022/05/13 07:43:37;;;;;;;;;;;;;;;21.77;34.02;100845.53;5111780;28;20066;-60
2022/05/13 07:46:07;;;;;;;5.82;0.98;;;;;;;21.91;34.50;100849.16;5092412;28;19927;-58
2022/05/13 07:48:45;;;;;;;6.22;1.30;;;;;;;22.07;34.10;100843.94;5096936;28;20054;-58
2022/05/13 07:51:15;;;;;;;5.45;1.02;;;;;;;22.22;33.74;100834.31;5111126;28;20062;-60
2022/05/13 07:53:57;;;;;;;3.65;0.68;;;;;;;22.41;33.33;100840.31;5099165;28;20043;-60
2022/05/13 07:56:27;;;;;;;3.55;0.70;;;;;;;22.59;33.77;100847.19;5106996;28;20466;-59
2022/05/13 07:58:57;;;;;;;9.30;1.20;;;;;;;22.74;33.27;100849.88;5096291;28;20036;-60
2022/05/13 08:01:25;;;;;;;5.43;1.00;;;;;;;22.76;33.00;100837.44;5112818;28;20066;-61
2022/05/13 08:03:56;;;;;;;8.48;1.25;;;;;;;22.74;32.57;100834.03;5095208;28;20091;-61
2022/05/13 08:06:23;;;;;;;10.10;1.80;;;;;;;22.70;32.29;100837.78;5103905;28;20059;-62
2022/05/13 08:08:58;;;;;;;9.18;1.15;;;;;;;22.63;31.93;100840.78;5102875;28;20428;-61
2022/05/13 08:11:28;;;;;;;5.75;1.08;;;;;;;22.52;32.43;100840.53;5112224;28;20051;-60
2022/05/13 08:14:04;;;;;;;8.77;1.30;;;;;;;22.33;32.64;100839.84;5100051;28;20044;-60
2022/05/13 08:16:40;;;;;;;8.40;1.00;;;;;;;22.24;32.91;100832.44;5107487;28;20062;-63
2022/05/13 08:19:08;;;;;;;9.27;1.13;;;;;;;22.12;33.16;100827.84;5099875;28;20054;-64
2022/05/13 08:21:37;;;;;;;10.65;1.55;;;;;;;22.03;33.30;100843.25;5094611;28;20056;-63
2022/05/13 08:24:13;;;;;;;23.45;1.65;;;;;;;21.89;32.95;100837.81;5089234;28;20044;-61
2022/05/13 08:26:41;;;;;;;2.53;1.00;;;;;;;21.83;33.44;100835.50;5104002;28;20048;-61
2022/05/13 08:29:09;;;;;;;5.93;1.10;;;;;;;21.93;33.29;100836.72;5110322;28;20131;-62
2022/05/13 08:31:39;;;;;;;29.63;2.42;;;;;;;21.93;32.71;100836.72;5098032;28;20048;-61
2022/05/13 08:34:14;;;;;;;8.10;1.20;;;;;;;21.93;32.89;100831.44;5114131;28;20483;-62
2022/05/13 08:36:42;;;;;;;6.55;0.95;;;;;;;22.00;32.91;100838.09;5103704;28;20054;-61
2022/05/13 08:39:21;;;;;;;6.57;1.17;;;;;;;22.09;32.71;100820.09;5099701;28;20048;-62
2022/05/13 08:42:10;;;;;;;10.10;1.67;;;;;;;22.23;32.12;100833.38;5092240;28;20075;-63
2022/05/13 08:44:40;;;;;;;17.20;1.90;;;;;;;22.25;32.21;100831.50;5103987;28;20052;-64
2022/05/13 08:47:14;;;;;;;7.50;1.00;;;;;;;22.27;32.08;100834.91;5109679;28;20055;-60
2022/05/13 08:49:51;;;;;;;8.13;1.50;;;;;;;22.26;32.35;100834.06;5073226;28;20052;-60
2022/05/13 08:55:20;;;;;;;8.10;0.90;;;;;;;22.17;32.06;100829.28;5089635;28;20202;-60
2022/05/13 08:57:51;;;;;;;5.65;1.08;;;;;;;22.06;32.13;100830.81;5060835;28;20083;-61
2022/05/13 09:00:29;;;;;;;4.78;1.00;;;;;;;21.95;32.09;100832.22;5086316;28;20068;-61
2022/05/13 09:03:03;;;;;;;6.88;0.93;;;;;;;21.80;32.04;100840.94;5087014;28;20066;-63
2022/05/13 09:05:36;;;;;;;4.15;0.77;;;;;;;21.64;31.89;100829.50;5077236;28;20060;-63
2022/05/13 09:08:13;;;;;;;6.68;0.90;;;;;;;21.45;32.32;100834.88;5086747;28;20516;-63
2022/05/13 09:10:57;;;;;;;7.88;1.42;;;;;;;21.27;31.71;100836.66;5084978;28;20044;-63
2022/05/13 09:13:35;;;;;;;9.45;1.35;;;;;;;21.11;32.65;100844.47;5076312;28;20048;-62
2022/05/13 09:16:09;;;;;;;6.05;1.00;;;;;;;20.95;32.65;100834.78;5086172;28;20048;-63
2022/05/13 09:18:47;;;;;;;4.75;1.00;;;;;;;20.82;33.06;100834.53;5083103;28;20056;-63
2022/05/13 09:21:19;;;;;;;6.40;1.02;;;;;;;20.71;32.94;100842.06;5068950;28;20063;-63
2022/05/13 09:23:46;;;;;;;6.15;1.02;;;;;;;20.68;33.12;100837.81;5088322;28;20053;-63
2022/05/13 09:26:22;;;;;;;5.60;1.08;;;;;;;20.67;33.01;100841.38;5086797;28;20549;-63
2022/05/13 09:29:11;;;;;;;5.25;0.98;;;;;;;20.70;32.67;100835.97;5079738;28;20049;-63
2022/05/13 09:31:40;;;;;;;19.83;1.88;;;;;;;20.72;33.04;100822.72;5084455;28;20060;-63
2022/05/13 09:34:36;;;;;;;27.33;2.20;;;;;;;20.78;32.95;100835.56;5086760;28;20063;-64
2022/05/13 09:37:07;;;;;;;12.07;1.30;;;;;;;20.87;33.13;100823.75;5078953;28;20064;-59
2022/05/13 09:39:40;;;;;;;6.15;1.30;;;;;;;20.99;32.74;100825.78;5081251;28;20044;-61
2022/05/13 09:42:42;;;;;;;32.25;3.38;;;;;;;21.03;32.05;100811.53;5079086;28;20131;-61
2022/05/13 09:45:22;;;;;;;7.30;1.60;;;;;;;21.05;32.27;100814.94;5081440;28;20086;-61
2022/05/13 09:51:32;;;;;;;6.78;1.13;;;;;;;21.07;32.52;100807.81;5103505;28;20364;-62
2022/05/13 09:54:13;;;;;;;5.57;1.45;;;;;;;21.06;32.61;100800.81;5082106;28;20050;-61
2022/05/13 09:56:46;;;;;;;8.30;1.30;;;;;;;20.99;32.93;100802.91;5100833;28;20060;-61
2022/05/13 09:59:19;;;;;;;10.57;1.50;;;;;;;20.94;32.99;100804.09;5107255;28;20542;-61
2022/05/13 10:01:46;;;;;;;9.98;1.27;;;;;;;20.90;32.98;100806.00;5107696;28;20052;-61
2022/05/13 10:04:27;;;;;;;13.70;1.40;;;;;;;20.87;32.32;100810.59;5099240;28;20055;-59
2022/05/13 10:07:05;;;;;;;7.45;1.05;;;;;;;20.79;32.30;100798.63;5099320;28;20060;-60
2022/05/13 10:15:31;;;;;;;5.35;1.23;;;;;;;20.71;32.86;100792.03;5101538;28;20426;-62
2022/05/13 10:18:08;;;;;;;18.92;2.50;;;;;;;20.71;32.81;100798.16;5094865;28;20058;-60
2022/05/13 10:20:42;;;;;;;12.23;1.60;;;;;;;20.68;32.90;100790.41;5102020;28;20075;-61
2022/05/13 10:23:17;;;;;;;15.67;1.67;;;;;;;20.72;32.92;100796.38;5085071;28;20056;-61
2022/05/13 10:26:03;;;;;;;8.55;1.30;;;;;;;20.76;32.62;100776.84;5109509;28;20109;-60
2022/05/13 10:28:52;;;;;;;8.27;1.02;;;;;;;20.85;32.74;100781.69;5096592;28;20087;-61
2022/05/13 10:31:41;;;;;;;4.72;0.85;;;;;;;20.89;32.47;100785.88;5103477;28;20486;-61
2022/05/13 10:34:23;;;;;;;24.75;3.35;;;;;;;20.97;32.92;100790.75;5098915;28;20478;-61
2022/05/13 10:37:00;;;;;;;13.30;2.33;;;;;;;21.07;32.67;100786.72;5103093;28;20079;-62
2022/05/13 10:39:35;;;;;;;3.95;1.23;;;;;;;21.16;32.02;100786.25;5093414;28;20044;-61
2022/05/13 10:42:09;;;;;;;6.70;1.08;;;;;;;21.15;32.22;100779.25;5104109;28;20043;-61
2022/05/13 10:44:45;;;;;;;10.77;1.30;;;;;;;21.18;32.00;100786.16;5109041;28;20083;-62
2022/05/13 10:47:21;;;;;;;22.73;1.88;;;;;;;21.23;32.12;100782.38;5115046;28;20052;-61
2022/05/13 10:49:50;;;;;;;14.48;2.05;;;;;;;21.30;32.04;100773.22;5086580;28;20079;-62
2022/05/13 10:52:46;;;;;;;7.90;1.48;;;;;;;21.34;31.78;100784.50;5111702;28;20127;-62
2022/05/13 10:55:16;;;;;;;;;;;;;;;21.30;31.42;100775.88;5115701;28;20047;-62
2022/05/13 10:57:53;;;;;;;4.90;1.08;;;;;;;21.36;31.91;100772.94;5102310;28;19930;-62
2022/05/13 11:00:33;;;;;;;9.13;1.02;;;;;;;21.42;31.53;100772.59;5113433;28;20044;-61
2022/05/13 11:03:36;;;;;;;17.73;1.35;;;;;;;21.48;31.74;100762.66;5105520;28;20052;-61
2022/05/13 11:06:33;;;;;;;8.27;1.13;;;;;;;21.44;31.72;100779.59;5090730;28;20050;-62
2022/05/13 11:09:08;;;;;;;1.65;0.90;;;;;;;21.42;31.96;100782.31;5105476;28;20051;-61
2022/05/13 11:11:41;;;;;;;9.10;1.23;;;;;;;21.33;31.82;100788.91;5116271;28;20199;-61
2022/05/13 11:14:35;;;;;;;15.05;1.42;;;;;;;21.21;31.52;100794.75;5105752;28;20043;-61
2022/05/13 11:17:12;;;;;;;5.30;1.10;;;;;;;21.09;32.04;100801.53;5101828;28;20426;-64
2022/05/13 11:19:45;;;;;;;40.95;3.20;;;;;;;21.03;32.39;100790.44;5103147;28;20048;-64
2022/05/13 11:22:25;;;;;;;18.13;2.33;;;;;;;20.96;32.43;100789.03;5112741;28;20052;-64
2022/05/13 11:28:15;;;;;;;1.98;0.90;;;;;;;20.87;32.72;100790.38;5100302;28;20524;-64
2022/05/13 11:30:48;;;;;;;4.70;1.40;;;;;;;20.79;32.98;100788.09;5110793;28;20047;-64
2022/05/13 11:33:29;;;;;;;3.55;1.20;;;;;;;20.76;33.04;100782.97;5103324;28;20063;-64
2022/05/13 11:36:22;;;;;;;5.90;1.30;;;;;;;20.70;33.04;100783.28;5088266;28;20452;-63
2022/05/13 11:39:10;;;;;;;4.15;1.52;;;;;;;20.72;33.06;100778.78;5105789;28;20067;-63
2022/05/13 11:41:50;;;;;;;9.35;1.77;;;;;;;20.75;33.31;100770.72;5100410;28;20048;-63
2022/05/13 11:44:26;;;;;;;6.70;1.05;;;;;;;20.76;33.26;100769.78;5111404;28;20495;-63
2022/05/13 11:47:02;;;;;;;6.38;1.00;;;;;;;20.77;33.13;100768.88;5105091;28;20052;-63
2022/05/13 11:49:36;;;;;;;26.55;2.80;;;;;;;20.74;33.14;100769.03;5114777;28;20056;-63
2022/05/13 11:52:28;;;;;;;32.78;2.60;;;;;;;20.69;32.72;100773.66;5103531;28;20047;-63
2022/05/13 11:55:17;;;;;;;9.68;1.25;;;;;;;20.66;32.99;100776.44;5102643;28;20143;-63
2022/05/13 11:57:55;;;;;;;8.77;1.48;;;;;;;20.65;33.30;100776.53;5104158;28;20058;-63
2022/05/13 12:00:41;;;;;;;6.00;1.10;;;;;;;20.58;32.60;100781.25;5096359;28;20335;-63
2022/05/13 12:03:20;;;;;;;4.45;0.90;;;;;;;20.48;32.88;100777.38;5109878;28;20075;-63
2022/05/13 12:06:04;;;;;;;16.15;1.40;;;;;;;20.40;33.05;100782.16;5085413;28;20447;-62
2022/05/13 12:08:42;;;;;;;9.25;2.10;;;;;;;20.31;33.29;100783.41;5105676;28;20058;-63
2022/05/13 12:11:36;;;;;;;2.92;1.08;;;;;;;20.18;32.74;100785.75;5110241;28;20051;-62
2022/05/13 12:14:15;;;;;;;5.22;1.27;;;;;;;20.09;32.92;100786.19;5086473;28;20048;-63
2022/05/13 12:16:56;;;;;;;14.25;1.30;;;;;;;20.08;33.05;100779.22;5096605;28;20055;-63
2022/05/13 12:19:47;;;;;;;28.90;2.92;;;;;;;20.04;33.03;100779.44;5111403;28;20479;-62
2022/05/13 12:22:37;;;;;;;8.65;1.40;;;;;;;19.99;33.23;100782.28;5094941;28;20048;-63
2022/05/13 12:25:15;;;;;;;10.82;1.52;;;;;;;19.97;33.23;100781.50;5103654;28;20051;-64
2022/05/13 12:28:05;;;;;;;14.73;2.00;;;;;;;19.93;32.93;100779.09;5098066;28;20058;-64
2022/05/13 12:30:43;;;;;;;5.57;1.30;;;;;;;19.86;33.58;100783.78;5105079;28;20052;-63